createdAt,value
2018-06-08T04:11:40.038Z,80.90
2018-06-08T04:14:09.984Z,83.50
2018-06-08T04:16:38.157Z,91.77
2018-06-08T04:19:06.827Z,92.57
2018-06-08T04:21:35.018Z,81.70
2018-06-08T04:24:03.179Z,86.27
2018-06-08T04:26:32.426Z,84.30
2018-06-08T04:29:00.614Z,83.03
2018-06-08T04:31:29.622Z,89.20
2018-06-08T04:33:57.807Z,86.73
2018-06-08T04:36:25.965Z,91.23
2018-06-08T04:38:56.431Z,96.77
2018-06-08T04:41:25.203Z,89.33
2018-06-08T04:43:53.376Z,92.13
2018-06-08T04:46:21.676Z,93.77
2018-06-08T04:48:49.828Z,89.27
2018-06-08T04:51:18.076Z,85.50
2018-06-08T04:53:46.274Z,97.93
2018-06-08T04:56:14.450Z,82.23
2018-06-08T04:58:48.038Z,87.03
2018-06-08T05:01:16.228Z,88.90
2018-06-08T05:03:44.345Z,95.17
2018-06-08T05:06:12.504Z,94.20
2018-06-08T05:08:40.782Z,90.13
2018-06-08T05:11:09.001Z,92.90
2018-06-08T05:13:37.142Z,86.90
2018-06-08T05:16:05.188Z,91.77
2018-06-08T05:18:33.341Z,91.73
2018-06-08T05:21:02.514Z,77.67
2018-06-08T05:23:32.278Z,93.73
2018-06-08T05:26:00.430Z,98.53
2018-06-08T05:28:28.584Z,90.37
2018-06-08T05:30:56.751Z,96.47
2018-06-08T05:33:24.928Z,94.17
2018-06-08T05:35:53.270Z,93.43
2018-06-08T05:38:21.441Z,94.37
2018-06-08T05:40:49.606Z,94.43
2018-06-08T05:43:17.801Z,93.00
2018-06-08T05:45:45.951Z,91.07
2018-06-08T05:48:14.166Z,95.57
2018-06-08T05:50:43.155Z,93.60
2018-06-08T05:53:11.806Z,92.67
2018-06-08T05:55:40.644Z,92.53
2018-06-08T05:58:08.810Z,91.93
2018-06-08T06:00:39.220Z,93.40
2018-06-08T06:03:07.422Z,93.93
2018-06-08T06:05:35.608Z,90.57
2018-06-08T06:08:03.848Z,78.30
2018-06-08T06:10:31.954Z,83.63
2018-06-08T06:13:00.134Z,87.20
2018-06-08T06:15:28.377Z,90.23
2018-06-08T06:17:56.580Z,88.47
2018-06-08T06:20:24.738Z,88.70
2018-06-08T06:22:52.941Z,81.90
2018-06-08T06:25:22.149Z,77.50
2018-06-08T06:27:51.242Z,82.00
2018-06-08T06:30:19.972Z,78.73
2018-06-08T06:32:49.321Z,78.07
2018-06-08T06:35:18.186Z,72.53
2018-06-08T06:37:46.354Z,79.80
2018-06-08T06:40:17.366Z,73.53
2018-06-08T06:42:45.523Z,70.03
2018-06-08T06:45:13.699Z,69.27
2018-06-08T06:47:41.934Z,62.80
2018-06-08T06:50:10.128Z,67.70
2018-06-08T06:52:38.701Z,64.70
2018-06-08T06:55:06.969Z,62.63
2018-06-08T06:57:36.141Z,56.43
2018-06-08T07:00:04.318Z,59.00
2018-06-08T07:02:35.421Z,51.97
2018-06-08T07:05:03.866Z,54.50
2018-06-08T07:07:32.086Z,50.43
2018-06-08T07:10:00.440Z,48.13
2018-06-08T07:12:28.601Z,52.60
2018-06-08T07:14:56.824Z,47.83
2018-06-08T07:17:25.037Z,48.70
2018-06-08T07:19:53.237Z,43.57
2018-06-08T07:22:21.427Z,44.07
2018-06-08T07:24:50.162Z,40.37
2018-06-08T07:27:18.277Z,39.87
2018-06-08T07:29:46.448Z,38.57
2018-06-08T07:32:14.667Z,41.03
2018-06-08T07:34:43.385Z,41.43
2018-06-08T07:37:12.787Z,42.87
2018-06-08T07:39:40.990Z,48.67
2018-06-08T07:42:09.142Z,47.03
2018-06-08T07:44:37.348Z,52.13
2018-06-08T07:47:05.592Z,45.17
2018-06-08T07:49:39.461Z,46.87
2018-06-08T07:52:08.429Z,51.90
2018-06-08T07:54:36.772Z,51.97
2018-06-08T07:57:06.121Z,53.50
2018-06-08T07:59:34.326Z,50.47
2018-06-08T08:02:02.614Z,48.50
2018-06-08T08:04:31.350Z,58.77
2018-06-08T08:06:59.870Z,54.53
2018-06-08T08:09:28.194Z,51.83
2018-06-08T08:11:56.446Z,55.43
2018-06-08T08:14:24.916Z,57.53
2018-06-08T08:16:53.057Z,63.10
2018-06-08T08:19:21.329Z,60.30
2018-06-08T08:21:49.524Z,69.87
2018-06-08T08:24:18.659Z,80.53
2018-06-08T08:26:46.889Z,73.47
2018-06-08T08:29:15.073Z,62.33
2018-06-08T08:31:45.159Z,74.13
2018-06-08T08:34:13.389Z,89.67
2018-06-08T08:36:41.530Z,167.87
2018-06-08T08:39:10.107Z,74.70
2018-06-08T08:41:38.346Z,67.60
2018-06-08T08:44:06.534Z,68.50
2018-06-08T08:46:35.138Z,59.20
2018-06-08T08:49:03.522Z,60.50
2018-06-08T08:51:32.206Z,66.50
2018-06-08T08:54:00.366Z,64.87
2018-06-08T08:56:28.586Z,69.57
2018-06-08T08:58:56.814Z,71.77
2018-06-08T09:01:25.031Z,65.03
2018-06-08T09:03:53.411Z,63.07
2018-06-08T09:06:21.655Z,65.33
2018-06-08T09:08:49.847Z,61.13
2018-06-08T09:11:18.040Z,66.30
2018-06-08T09:13:46.270Z,64.87
2018-06-08T09:16:14.502Z,66.93
2018-06-08T09:18:42.762Z,59.73
2018-06-08T09:21:15.035Z,62.40
2018-06-08T09:23:43.210Z,56.00
2018-06-08T09:26:12.241Z,63.00
2018-06-08T09:28:40.460Z,58.03
2018-06-08T09:31:08.704Z,61.80
2018-06-08T09:33:36.894Z,62.67
2018-06-08T09:36:05.395Z,61.90
2018-06-08T09:38:33.917Z,61.50
2018-06-08T09:41:02.100Z,52.83
2018-06-08T09:43:30.397Z,60.47
2018-06-08T09:45:58.620Z,62.50
2018-06-08T09:48:26.786Z,60.20
2018-06-08T09:50:55.073Z,65.07
2018-06-08T09:53:23.264Z,68.97
2018-06-08T09:55:51.793Z,66.10
2018-06-08T09:58:19.995Z,68.10
2018-06-08T10:00:48.198Z,63.53
2018-06-08T10:03:16.387Z,66.90
2018-06-08T10:05:44.586Z,72.87
2018-06-08T10:08:12.883Z,70.70
2018-06-08T10:10:41.061Z,68.10
2018-06-08T10:13:09.230Z,72.40
2018-06-08T10:15:37.421Z,78.40
2018-06-08T10:18:05.722Z,69.97
2018-06-08T10:20:33.922Z,77.13
2018-06-08T10:23:02.578Z,73.60
2018-06-08T10:25:30.770Z,83.17
2018-06-08T10:27:59.853Z,70.37
2018-06-08T10:30:30.019Z,81.30
2018-06-08T10:33:00.523Z,70.47
2018-06-08T10:35:29.489Z,75.27
2018-06-08T10:37:58.405Z,71.20
2018-06-08T10:40:26.946Z,80.43
2018-06-08T10:42:55.158Z,85.23
2018-06-08T10:45:23.326Z,69.10
2018-06-08T10:47:51.594Z,67.50
2018-06-08T10:50:20.268Z,57.40
2018-06-08T10:52:48.929Z,59.07
2018-06-08T10:55:17.098Z,65.93
2018-06-08T10:57:45.274Z,64.60
2018-06-08T11:00:13.960Z,64.83
2018-06-08T11:02:42.380Z,76.93
2018-06-08T11:05:13.250Z,62.37
2018-06-08T11:07:42.501Z,70.03
2018-06-08T11:10:10.996Z,65.20
2018-06-08T11:12:39.268Z,66.57
2018-06-08T11:15:09.415Z,66.13
2018-06-08T11:17:38.242Z,70.93
2018-06-08T11:20:06.493Z,71.13
2018-06-08T11:22:34.669Z,63.43
2018-06-08T11:25:02.841Z,67.47
2018-06-08T11:27:31.013Z,73.07
2018-06-08T11:29:59.178Z,74.53
2018-06-08T11:32:27.381Z,69.33
2018-06-08T11:34:55.579Z,62.03
2018-06-08T11:37:25.416Z,73.87
2018-06-08T11:39:53.666Z,70.17
2018-06-08T11:42:21.838Z,63.43
2018-06-08T11:44:50.077Z,62.00
2018-06-08T11:47:18.674Z,68.03
2018-06-08T11:49:47.878Z,65.73
2018-06-08T11:52:16.061Z,65.53
2018-06-08T11:54:44.342Z,54.97
2018-06-08T11:57:13.278Z,58.83
2018-06-08T11:59:41.469Z,61.87
2018-06-08T12:02:09.645Z,57.83
2018-06-08T12:04:37.814Z,59.07
2018-06-08T12:07:06.030Z,59.67
2018-06-08T12:09:34.186Z,57.07
2018-06-08T12:12:04.150Z,57.60
2018-06-08T12:14:32.417Z,54.57
2018-06-08T12:17:00.633Z,60.70
2018-06-08T12:19:28.752Z,64.97
2018-06-08T12:21:56.986Z,64.00
2018-06-08T12:24:25.155Z,64.93
2018-06-08T12:26:53.321Z,59.43
2018-06-08T12:29:21.528Z,56.07
2018-06-08T12:31:49.694Z,67.47
2018-06-08T12:34:17.877Z,63.97
2018-06-08T12:36:46.061Z,58.63
2018-06-08T12:39:14.257Z,58.53
2018-06-08T12:41:42.866Z,60.80
2018-06-08T12:44:11.066Z,58.23
2018-06-08T12:46:39.226Z,67.53
2018-06-08T12:49:07.442Z,68.23
2018-06-08T12:51:35.610Z,56.87
2018-06-08T12:54:03.762Z,56.43
2018-06-08T12:56:31.917Z,64.33
2018-06-08T12:59:00.070Z,59.50
2018-06-08T13:01:28.240Z,55.40
2018-06-08T13:03:56.385Z,56.67
